createdAt,value
2023-05-18T00:02:13.445Z,17.40
2023-05-18T00:04:46.283Z,17.35
2023-05-18T00:07:19.331Z,17.28
2023-05-18T00:09:52.039Z,17.23
2023-05-18T00:12:24.748Z,17.17
2023-05-18T00:14:57.400Z,17.09
2023-05-18T00:17:30.296Z,17.03
2023-05-18T00:20:05.194Z,17.02
2023-05-18T00:22:40.480Z,17.02
2023-05-18T00:25:13.338Z,17.03
2023-05-18T00:27:46.048Z,17.02
2023-05-18T00:30:19.095Z,16.99
2023-05-18T00:32:51.862Z,16.93
2023-05-18T00:35:24.460Z,16.90
2023-05-18T00:37:57.194Z,16.87
2023-05-18T00:40:30.307Z,16.86
2023-05-18T00:43:03.097Z,16.87
2023-05-18T00:45:36.804Z,16.87
2023-05-18T00:48:10.145Z,16.84
2023-05-18T00:50:42.906Z,16.81
2023-05-18T00:53:15.606Z,16.80
2023-05-18T00:55:48.464Z,16.80
2023-05-18T00:58:21.202Z,16.77
2023-05-18T01:01:16.672Z,16.73
2023-05-18T01:03:49.182Z,16.72
2023-05-18T01:06:21.736Z,16.70
2023-05-18T01:08:57.560Z,16.68
2023-05-18T01:11:57.288Z,16.66
2023-05-18T01:14:44.627Z,16.63
2023-05-18T01:17:33.955Z,16.59
2023-05-18T01:20:27.874Z,16.55
2023-05-18T01:23:28.000Z,16.47
2023-05-18T01:26:16.737Z,16.41
2023-05-18T01:28:49.803Z,16.34
2023-05-18T01:31:22.632Z,16.27
2023-05-18T01:33:55.325Z,16.22
2023-05-18T01:36:28.060Z,16.19
2023-05-18T01:39:02.251Z,16.19
2023-05-18T01:41:39.545Z,16.20
2023-05-18T01:44:17.768Z,16.20
2023-05-18T01:47:12.007Z,16.22
2023-05-18T01:50:13.546Z,16.20
2023-05-18T01:53:11.320Z,16.18
2023-05-18T01:55:44.778Z,16.16
2023-05-18T01:58:17.911Z,16.11
2023-05-18T02:00:51.006Z,16.06
2023-05-18T02:03:23.678Z,16.04
2023-05-18T02:05:57.685Z,16.01
2023-05-18T02:08:30.845Z,15.99
2023-05-18T02:11:03.800Z,15.98
2023-05-18T02:13:37.025Z,15.97
2023-05-18T02:16:12.084Z,15.98
2023-05-18T02:18:45.826Z,15.96
2023-05-18T02:21:19.198Z,15.94
2023-05-18T02:23:52.461Z,15.94
2023-05-18T02:26:25.053Z,15.92
2023-05-18T02:28:57.905Z,15.88
2023-05-18T02:31:31.162Z,15.85
2023-05-18T02:34:05.746Z,15.83
2023-05-18T02:36:40.523Z,15.81
2023-05-18T02:39:13.367Z,15.78
2023-05-18T02:41:46.400Z,15.79
2023-05-18T02:44:19.010Z,15.81
2023-05-18T02:46:53.341Z,15.86
2023-05-18T02:49:25.833Z,15.88
2023-05-18T02:51:58.391Z,15.91
2023-05-18T02:54:32.033Z,15.94
2023-05-18T02:57:05.270Z,15.98
2023-05-18T02:59:39.135Z,16.01
2023-05-18T03:02:13.322Z,16.06
2023-05-18T03:04:49.352Z,16.10
2023-05-18T03:07:27.365Z,16.13
2023-05-18T03:10:01.001Z,16.18
2023-05-18T03:12:34.295Z,16.28
2023-05-18T03:15:07.806Z,16.42
2023-05-18T03:17:41.621Z,16.51
2023-05-18T03:20:16.211Z,16.59
2023-05-18T03:22:49.010Z,16.67
2023-05-18T03:25:24.738Z,16.76
2023-05-18T03:27:58.544Z,16.85
2023-05-18T03:30:33.098Z,16.89
2023-05-18T03:33:06.546Z,16.97
2023-05-18T03:35:41.424Z,17.03
2023-05-18T03:38:16.015Z,17.11
2023-05-18T03:40:50.268Z,17.18
2023-05-18T03:43:24.556Z,17.26
2023-05-18T03:45:57.370Z,17.34
2023-05-18T03:48:31.872Z,17.41
2023-05-18T03:51:04.560Z,17.48
2023-05-18T03:53:38.403Z,17.57
2023-05-18T03:56:11.027Z,17.70
2023-05-18T03:58:44.712Z,17.82
2023-05-18T04:01:19.704Z,17.94
2023-05-18T04:03:53.846Z,18.06
2023-05-18T04:06:27.353Z,18.16
2023-05-18T04:09:01.538Z,18.27
2023-05-18T04:11:34.076Z,18.39
2023-05-18T04:14:08.466Z,18.52
2023-05-18T04:16:40.774Z,18.62
2023-05-18T04:19:13.943Z,18.74
2023-05-18T04:21:47.610Z,18.85
2023-05-18T04:24:21.556Z,19.00
2023-05-18T04:26:54.656Z,19.16
2023-05-18T04:29:30.943Z,19.31
2023-05-18T04:32:04.329Z,19.43
2023-05-18T04:34:37.519Z,19.56
2023-05-18T04:37:10.739Z,19.67
2023-05-18T04:39:43.724Z,19.76
2023-05-18T04:42:18.744Z,19.85
2023-05-18T04:44:54.497Z,19.90
2023-05-18T04:47:27.040Z,19.96
2023-05-18T04:49:59.773Z,20.04
2023-05-18T04:52:34.117Z,20.11
2023-05-18T04:55:09.281Z,20.18
2023-05-18T04:57:44.679Z,20.21
2023-05-18T05:00:18.097Z,20.25
2023-05-18T05:05:24.502Z,20.38
2023-05-18T05:07:57.668Z,20.42
2023-05-18T05:10:30.337Z,20.46
2023-05-18T05:13:05.372Z,20.54
2023-05-18T05:15:38.848Z,20.61
2023-05-18T05:18:11.554Z,20.67
2023-05-18T05:20:44.498Z,20.75
2023-05-18T05:23:17.145Z,20.82
2023-05-18T05:25:50.681Z,20.90
2023-05-18T05:28:23.246Z,21.02
2023-05-18T05:30:56.312Z,21.10
2023-05-18T05:33:29.130Z,21.26
2023-05-18T05:36:01.717Z,21.39
2023-05-18T05:38:35.051Z,21.48
2023-05-18T05:41:07.710Z,21.62
2023-05-18T05:43:40.667Z,21.77
2023-05-18T05:46:13.272Z,21.94
2023-05-18T05:48:46.400Z,22.08
2023-05-18T05:51:19.738Z,22.25
2023-05-18T05:53:53.279Z,22.41
2023-05-18T05:56:26.620Z,22.58
2023-05-18T05:58:59.219Z,22.79
2023-05-18T06:01:32.530Z,22.98
2023-05-18T06:04:06.711Z,23.17
2023-05-18T06:06:40.112Z,23.34
2023-05-18T06:09:14.505Z,23.49
2023-05-18T06:11:47.486Z,23.93
2023-05-18T06:14:20.236Z,23.93
2023-05-18T06:16:53.075Z,24.13
2023-05-18T06:19:26.139Z,24.30
2023-05-18T06:21:58.693Z,24.35
2023-05-18T06:24:33.557Z,24.41
2023-05-18T06:27:13.895Z,24.50
2023-05-18T06:29:48.183Z,24.63
2023-05-18T06:32:31.537Z,24.76
2023-05-18T06:35:04.338Z,24.87
2023-05-18T06:37:37.001Z,24.99
2023-05-18T06:40:11.433Z,25.10
2023-05-18T06:42:44.135Z,25.17
2023-05-18T06:45:36.107Z,25.24
2023-05-18T06:48:17.637Z,25.29
2023-05-18T06:50:50.103Z,25.37
2023-05-18T06:53:23.468Z,25.44
2023-05-18T06:55:56.404Z,25.54
2023-05-18T06:58:29.201Z,25.71
2023-05-18T07:01:07.928Z,25.86
2023-05-18T07:03:41.220Z,25.99
2023-05-18T07:06:14.364Z,26.09
2023-05-18T07:08:47.941Z,26.09
2023-05-18T07:11:21.118Z,26.14
2023-05-18T07:13:54.525Z,26.15
2023-05-18T07:16:28.927Z,26.17
2023-05-18T07:19:02.211Z,26.29
2023-05-18T07:21:34.906Z,26.46
2023-05-18T07:24:07.615Z,26.52
2023-05-18T07:26:40.244Z,26.62
2023-05-18T07:29:13.433Z,26.72
2023-05-18T07:31:46.589Z,26.71
2023-05-18T07:34:19.109Z,26.68
2023-05-18T07:36:51.798Z,26.79
2023-05-18T07:39:26.982Z,26.87
2023-05-18T07:41:59.865Z,26.97
2023-05-18T07:44:32.726Z,27.01
2023-05-18T07:47:05.736Z,27.15
2023-05-18T07:49:39.846Z,27.24
2023-05-18T07:52:12.397Z,27.33
2023-05-18T07:54:44.960Z,27.32
2023-05-18T07:57:17.552Z,27.35
2023-05-18T07:59:50.047Z,27.39
2023-05-18T08:02:22.878Z,27.47
2023-05-18T08:04:55.860Z,27.65
2023-05-18T08:07:30.320Z,27.90
2023-05-18T08:10:03.104Z,28.09
2023-05-18T08:12:36.419Z,28.10
2023-05-18T08:15:30.599Z,28.06
2023-05-18T08:18:03.293Z,28.01
2023-05-18T08:20:36.287Z,28.10
2023-05-18T08:23:08.863Z,28.18
2023-05-18T08:25:41.406Z,28.25
2023-05-18T08:28:14.034Z,28.38
2023-05-18T08:30:46.880Z,28.40
2023-05-18T08:33:19.602Z,28.46
2023-05-18T08:35:52.486Z,28.51
2023-05-18T08:38:25.401Z,28.49
2023-05-18T08:41:17.896Z,28.49
2023-05-18T08:43:57.005Z,28.53
2023-05-18T08:46:43.483Z,28.61
2023-05-18T08:49:16.697Z,28.68
2023-05-18T08:51:52.733Z,28.73
2023-05-18T08:54:25.334Z,28.76
2023-05-18T08:56:57.866Z,28.91
2023-05-18T08:59:33.367Z,29.12
2023-05-18T09:02:06.934Z,29.28
2023-05-18T09:04:40.180Z,29.27
2023-05-18T09:07:13.685Z,29.13
2023-05-18T09:09:46.909Z,28.97
2023-05-18T09:12:19.535Z,28.96
2023-05-18T09:14:52.485Z,29.12
2023-05-18T09:17:25.478Z,29.35
2023-05-18T09:19:58.388Z,29.57
2023-05-18T09:22:30.835Z,29.63
2023-05-18T09:25:05.128Z,29.74
2023-05-18T09:27:38.612Z,29.88
2023-05-18T09:30:13.173Z,30.06
2023-05-18T09:32:48.848Z,30.24
2023-05-18T09:35:23.437Z,30.33
2023-05-18T09:39:13.232Z,30.19
2023-05-18T09:41:46.865Z,30.04
2023-05-18T09:44:19.597Z,30.05
2023-05-18T09:46:55.980Z,30.13
2023-05-18T09:49:32.589Z,30.16
2023-05-18T09:52:09.645Z,30.33
2023-05-18T09:54:42.562Z,30.45
2023-05-18T09:57:15.927Z,30.44
2023-05-18T09:59:53.705Z,30.46
2023-05-18T10:02:27.389Z,30.47
2023-05-18T10:04:59.972Z,30.50
2023-05-18T10:07:34.014Z,30.64
2023-05-18T10:10:09.091Z,30.83
2023-05-18T10:12:42.173Z,30.83
2023-05-18T10:15:20.822Z,31.02
2023-05-18T10:17:58.464Z,31.05
2023-05-18T10:20:31.140Z,30.92
2023-05-18T10:23:06.112Z,30.88
2023-05-18T10:25:38.631Z,30.88
2023-05-18T10:28:11.191Z,30.90
2023-05-18T10:30:43.925Z,30.91
2023-05-18T10:33:28.013Z,31.01
2023-05-18T10:35:51.534Z,31.06
2023-05-18T10:38:26.698Z,31.13
2023-05-18T10:41:01.987Z,31.20
2023-05-18T10:43:35.380Z,31.25
2023-05-18T10:46:11.197Z,31.28
2023-05-18T10:48:45.519Z,31.21
2023-05-18T10:51:19.312Z,31.01
2023-05-18T10:53:54.506Z,30.93
2023-05-18T10:56:26.691Z,31.03
2023-05-18T10:58:59.165Z,31.10
2023-05-18T11:01:31.963Z,31.13
2023-05-18T11:04:06.629Z,31.08
2023-05-18T11:06:39.470Z,31.11
2023-05-18T11:09:15.584Z,31.15
2023-05-18T11:11:59.344Z,31.17
2023-05-18T11:14:33.242Z,31.18
2023-05-18T11:17:25.945Z,31.19
2023-05-18T11:23:04.488Z,31.28
2023-05-18T11:25:41.505Z,31.25
2023-05-18T11:28:15.881Z,31.39
2023-05-18T11:30:52.960Z,31.53
2023-05-18T11:33:30.720Z,31.49
2023-05-18T11:36:15.734Z,31.46
2023-05-18T11:38:57.196Z,31.46
2023-05-18T11:41:46.150Z,31.34
2023-05-18T11:44:21.348Z,31.22
2023-05-18T11:46:58.902Z,31.11
2023-05-18T11:49:33.926Z,31.08
2023-05-18T11:52:15.397Z,31.11
2023-05-18T11:54:52.491Z,31.14
2023-05-18T11:57:40.596Z,31.16
2023-05-18T12:00:15.246Z,31.17
2023-05-18T12:02:49.834Z,31.17
2023-05-18T12:05:22.710Z,31.20
2023-05-18T12:07:55.654Z,31.23
2023-05-18T12:10:28.660Z,31.23
2023-05-18T12:13:01.447Z,31.22
2023-05-18T12:15:34.230Z,31.19
2023-05-18T12:18:06.958Z,31.13
2023-05-18T12:20:41.619Z,31.15
2023-05-18T12:23:14.438Z,31.15
2023-05-18T12:25:49.058Z,31.04
2023-05-18T12:28:22.019Z,31.01
2023-05-18T12:30:57.842Z,31.00
2023-05-18T12:33:30.745Z,30.91
2023-05-18T12:36:03.456Z,30.80
2023-05-18T12:38:37.578Z,30.76
2023-05-18T12:41:10.617Z,30.75
2023-05-18T12:43:44.410Z,30.72
2023-05-18T12:46:17.213Z,30.65
2023-05-18T12:48:57.404Z,30.50
2023-05-18T12:51:40.387Z,30.38
2023-05-18T12:54:14.405Z,30.34
2023-05-18T12:57:02.143Z,30.37
2023-05-18T12:59:36.376Z,30.35
2023-05-18T13:02:09.529Z,30.24
2023-05-18T13:04:42.769Z,30.19
2023-05-18T13:07:16.069Z,30.13
2023-05-18T13:09:49.955Z,30.18
2023-05-18T13:12:28.020Z,30.25
2023-05-18T13:15:00.839Z,30.23
2023-05-18T13:17:34.082Z,30.12
2023-05-18T13:20:10.205Z,30.04
2023-05-18T13:22:42.812Z,29.99
2023-05-18T13:25:16.368Z,29.95
2023-05-18T13:27:50.709Z,29.87
2023-05-18T13:30:24.446Z,29.82
2023-05-18T13:32:58.636Z,29.75
2023-05-18T13:35:31.363Z,29.62
2023-05-18T13:38:04.274Z,29.58
2023-05-18T13:40:37.118Z,29.58
2023-05-18T13:43:11.996Z,29.57
2023-05-18T13:45:44.517Z,29.55
2023-05-18T13:48:17.409Z,29.55
2023-05-18T13:50:49.982Z,29.47
2023-05-18T13:53:22.561Z,29.34
2023-05-18T13:55:55.575Z,29.21
2023-05-18T13:58:28.233Z,29.05
2023-05-18T14:01:02.764Z,28.99
2023-05-18T14:03:37.057Z,28.87
2023-05-18T14:06:09.862Z,28.81
2023-05-18T14:08:43.093Z,28.73
2023-05-18T14:11:15.621Z,28.69
2023-05-18T14:13:48.414Z,28.65
2023-05-18T14:16:21.166Z,28.60
2023-05-18T14:18:53.927Z,28.52
2023-05-18T14:21:26.518Z,28.46
2023-05-18T14:24:00.777Z,28.34
2023-05-18T14:26:34.750Z,28.25
2023-05-18T14:29:07.318Z,28.19
2023-05-18T14:31:40.253Z,28.13
2023-05-18T14:34:13.098Z,28.07
2023-05-18T14:36:46.434Z,27.99
2023-05-18T14:39:21.809Z,27.93
2023-05-18T14:41:54.621Z,27.85
2023-05-18T14:44:27.451Z,27.83
2023-05-18T14:47:00.126Z,27.79
2023-05-18T14:49:36.946Z,27.73
2023-05-18T14:52:09.857Z,27.69
2023-05-18T14:54:43.270Z,27.64
2023-05-18T14:57:15.795Z,27.58
2023-05-18T14:59:48.449Z,27.55
2023-05-18T15:02:21.445Z,27.51
2023-05-18T15:04:53.928Z,27.48
2023-05-18T15:07:26.688Z,27.45
2023-05-18T15:09:59.661Z,27.43
2023-05-18T15:12:32.171Z,27.40
2023-05-18T15:15:04.762Z,27.33
2023-05-18T15:17:38.575Z,27.28
2023-05-18T15:20:12.103Z,27.21
2023-05-18T15:22:45.495Z,27.13
2023-05-18T15:25:18.189Z,27.06
2023-05-18T15:27:52.803Z,27.01
2023-05-18T15:30:25.692Z,26.95
2023-05-18T15:32:58.830Z,26.91
2023-05-18T15:35:32.417Z,26.86
2023-05-18T15:38:05.093Z,26.85
2023-05-18T15:40:37.734Z,26.81
2023-05-18T15:43:10.253Z,26.78
2023-05-18T15:45:43.174Z,26.71
2023-05-18T15:48:16.087Z,26.66
2023-05-18T15:50:48.703Z,26.62
2023-05-18T15:53:21.393Z,26.56
2023-05-18T15:55:59.107Z,26.48
2023-05-18T15:58:30.345Z,26.41
2023-05-18T16:01:03.463Z,26.35
2023-05-18T16:03:36.626Z,26.31
2023-05-18T16:06:09.463Z,26.26
2023-05-18T16:08:42.181Z,26.19
2023-05-18T16:11:15.025Z,26.14
2023-05-18T16:13:50.116Z,26.08
2023-05-18T16:19:10.126Z,25.93
2023-05-18T16:21:43.032Z,25.84
2023-05-18T16:24:15.590Z,25.76
2023-05-18T16:26:48.353Z,25.70
2023-05-18T16:29:21.419Z,25.66
2023-05-18T16:31:54.244Z,25.57
2023-05-18T16:34:27.096Z,25.48
2023-05-18T16:36:59.871Z,25.36
2023-05-18T16:39:32.836Z,25.23
2023-05-18T16:42:05.530Z,25.12
2023-05-18T16:44:38.717Z,25.01
2023-05-18T16:47:11.325Z,24.93
2023-05-18T16:49:47.220Z,24.85
2023-05-18T16:52:21.767Z,24.78
2023-05-18T16:54:54.650Z,24.73
2023-05-18T16:57:27.810Z,24.68
2023-05-18T17:00:01.551Z,24.60
2023-05-18T17:02:38.242Z,24.52
2023-05-18T17:05:11.863Z,24.44
2023-05-18T17:07:45.180Z,24.34
